logo
Search for airport 
image banner adimage banner adimage banner ad
image banner ad

FAPZ - Progress

Located in Greenbushes, South Africa

ICAO - FAPZ, IATA -

Data provided by Airmate  

General information

Coordinates: S33°55'30" E25°22'20"
Elevation is 740 feet MSL.
 
View others Airports in Eastern Cape

Operational data

Special qualification required
Current time UTC:
Current local time:
METAR: FAPE 181000Z 24014KT 9999 FEW005 20/15 Q1019 NOSIG
TAF: TAF FAPE 181000Z 1812/1912 24015KT 9999 FEW008 TX25/1912Z TN14/1903Z BECMG 1813/1815 BKN008 BECMG 1819/1821 VRB03KT TEMPO 1820/1906 2000 BR BKN002 PROB30 TEMPO 1900/1905 0500 FG BKN001 BECMG 1908/1910 09012KT CAVOK
View NOTAMs / SUP AIP / TFR affecting this airport [VIEW]
Communications frequencies: [VIEW]

Runways:

RWY identifierQFULength (ft)Width (ft)SurfaceLDA (ft)
1000UNK
2800UNK
07262598UNK
25262598UNK

Airport contact information

Address: Greenbushes South Africa

Other aviation service providers

Flight schools

Progress Flight Academy

Progress Flight Academy
info@flightacademy.co.za+27413941000
+27872382574

Satellite view of FAPZ